sensor_id;sensor_type;location;lat;lon;timestamp;P1;durP1;ratioP1;P2;durP2;ratioP2
7029;SDS011;3556;53.500;10.176;2024-02-15T00:00:41;37.50;;;14.43;;
7029;SDS011;3556;53.500;10.176;2024-02-15T00:03:08;35.77;;;14.70;;
7029;SDS011;3556;53.500;10.176;2024-02-15T00:05:38;31.70;;;14.27;;
7029;SDS011;3556;53.500;10.176;2024-02-15T00:08:04;34.13;;;13.70;;
7029;SDS011;3556;53.500;10.176;2024-02-15T00:10:31;39.73;;;14.70;;
7029;SDS011;3556;53.500;10.176;2024-02-15T00:12:57;34.30;;;14.80;;
7029;SDS011;3556;53.500;10.176;2024-02-15T00:15:23;41.43;;;15.97;;
7029;SDS011;3556;53.500;10.176;2024-02-15T00:17:49;34.33;;;14.43;;
7029;SDS011;3556;53.500;10.176;2024-02-15T00:20:15;30.17;;;12.50;;
7029;SDS011;3556;53.500;10.176;2024-02-15T00:22:42;39.60;;;15.47;;
7029;SDS011;3556;53.500;10.176;2024-02-15T00:25:08;35.10;;;14.40;;
7029;SDS011;3556;53.500;10.176;2024-02-15T00:27:35;33.30;;;14.33;;
7029;SDS011;3556;53.500;10.176;2024-02-15T00:30:03;33.80;;;14.60;;
7029;SDS011;3556;53.500;10.176;2024-02-15T00:32:32;36.47;;;15.33;;
7029;SDS011;3556;53.500;10.176;2024-02-15T00:34:58;38.33;;;15.00;;
7029;SDS011;3556;53.500;10.176;2024-02-15T00:37:24;32.60;;;14.50;;
7029;SDS011;3556;53.500;10.176;2024-02-15T00:39:50;32.97;;;14.87;;
7029;SDS011;3556;53.500;10.176;2024-02-15T00:42:15;35.30;;;14.10;;
7029;SDS011;3556;53.500;10.176;2024-02-15T00:44:41;37.93;;;14.80;;
7029;SDS011;3556;53.500;10.176;2024-02-15T00:47:07;37.30;;;14.17;;
7029;SDS011;3556;53.500;10.176;2024-02-15T00:49:34;34.70;;;14.10;;
7029;SDS011;3556;53.500;10.176;2024-02-15T00:52:00;34.23;;;13.90;;
7029;SDS011;3556;53.500;10.176;2024-02-15T00:54:26;36.70;;;14.77;;
7029;SDS011;3556;53.500;10.176;2024-02-15T00:56:52;37.60;;;15.07;;
7029;SDS011;3556;53.500;10.176;2024-02-15T00:59:18;38.83;;;14.27;;
7029;SDS011;3556;53.500;10.176;2024-02-15T01:01:43;39.00;;;14.37;;
7029;SDS011;3556;53.500;10.176;2024-02-15T01:04:09;33.70;;;13.93;;
7029;SDS011;3556;53.500;10.176;2024-02-15T01:06:35;35.73;;;14.53;;
7029;SDS011;3556;53.500;10.176;2024-02-15T01:09:01;34.97;;;14.90;;
7029;SDS011;3556;53.500;10.176;2024-02-15T01:11:28;35.97;;;14.17;;
7029;SDS011;3556;53.500;10.176;2024-02-15T01:13:55;31.03;;;12.93;;
7029;SDS011;3556;53.500;10.176;2024-02-15T01:16:20;29.93;;;14.57;;
7029;SDS011;3556;53.500;10.176;2024-02-15T01:18:49;28.53;;;13.10;;
7029;SDS011;3556;53.500;10.176;2024-02-15T01:21:15;29.93;;;12.40;;
7029;SDS011;3556;53.500;10.176;2024-02-15T01:23:42;32.57;;;13.60;;
7029;SDS011;3556;53.500;10.176;2024-02-15T01:26:08;29.40;;;12.70;;
7029;SDS011;3556;53.500;10.176;2024-02-15T01:28:33;29.20;;;12.90;;
7029;SDS011;3556;53.500;10.176;2024-02-15T01:30:59;31.00;;;13.10;;
7029;SDS011;3556;53.500;10.176;2024-02-15T01:33:25;35.93;;;13.27;;
7029;SDS011;3556;53.500;10.176;2024-02-15T01:35:50;32.73;;;12.90;;
7029;SDS011;3556;53.500;10.176;2024-02-15T01:38:16;28.87;;;13.30;;
7029;SDS011;3556;53.500;10.176;2024-02-15T01:40:41;28.50;;;12.80;;
7029;SDS011;3556;53.500;10.176;2024-02-15T01:43:07;31.93;;;13.40;;
7029;SDS011;3556;53.500;10.176;2024-02-15T01:45:33;30.10;;;12.80;;
7029;SDS011;3556;53.500;10.176;2024-02-15T01:47:59;38.57;;;13.53;;
7029;SDS011;3556;53.500;10.176;2024-02-15T01:50:27;32.07;;;12.80;;
7029;SDS011;3556;53.500;10.176;2024-02-15T01:52:53;30.70;;;13.93;;
7029;SDS011;3556;53.500;10.176;2024-02-15T01:55:22;31.50;;;13.87;;
7029;SDS011;3556;53.500;10.176;2024-02-15T01:57:48;32.50;;;13.13;;
7029;SDS011;3556;53.500;10.176;2024-02-15T02:00:15;30.57;;;13.20;;
7029;SDS011;3556;53.500;10.176;2024-02-15T02:02:43;28.30;;;12.70;;
7029;SDS011;3556;53.500;10.176;2024-02-15T02:05:10;27.70;;;12.90;;
7029;SDS011;3556;53.500;10.176;2024-02-15T02:07:36;32.20;;;13.23;;
7029;SDS011;3556;53.500;10.176;2024-02-15T02:10:02;34.93;;;14.53;;
7029;SDS011;3556;53.500;10.176;2024-02-15T02:12:29;32.90;;;13.60;;
7029;SDS011;3556;53.500;10.176;2024-02-15T02:14:55;31.30;;;13.63;;
7029;SDS011;3556;53.500;10.176;2024-02-15T02:17:22;29.77;;;12.70;;
7029;SDS011;3556;53.500;10.176;2024-02-15T02:19:48;33.40;;;14.60;;
7029;SDS011;3556;53.500;10.176;2024-02-15T02:22:16;33.40;;;14.23;;
7029;SDS011;3556;53.500;10.176;2024-02-15T02:27:32;36.60;;;14.13;;
7029;SDS011;3556;53.500;10.176;2024-02-15T02:29:58;35.20;;;14.93;;
7029;SDS011;3556;53.500;10.176;2024-02-15T02:32:27;35.33;;;14.90;;
7029;SDS011;3556;53.500;10.176;2024-02-15T02:34:52;39.60;;;15.80;;
7029;SDS011;3556;53.500;10.176;2024-02-15T02:37:22;37.60;;;15.83;;
7029;SDS011;3556;53.500;10.176;2024-02-15T02:39:49;46.53;;;16.60;;
7029;SDS011;3556;53.500;10.176;2024-02-15T02:42:15;42.57;;;17.50;;
7029;SDS011;3556;53.500;10.176;2024-02-15T02:44:40;42.70;;;17.40;;
7029;SDS011;3556;53.500;10.176;2024-02-15T02:47:06;41.43;;;16.60;;
7029;SDS011;3556;53.500;10.176;2024-02-15T02:49:31;36.13;;;15.83;;
7029;SDS011;3556;53.500;10.176;2024-02-15T02:51:57;40.50;;;15.77;;
7029;SDS011;3556;53.500;10.176;2024-02-15T02:54:23;43.13;;;16.77;;
7029;SDS011;3556;53.500;10.176;2024-02-15T02:56:49;44.40;;;16.47;;
7029;SDS011;3556;53.500;10.176;2024-02-15T02:59:14;39.07;;;16.40;;
7029;SDS011;3556;53.500;10.176;2024-02-15T03:01:41;38.83;;;15.70;;
7029;SDS011;3556;53.500;10.176;2024-02-15T03:04:07;38.50;;;15.10;;
7029;SDS011;3556;53.500;10.176;2024-02-15T03:06:33;42.33;;;15.10;;
7029;SDS011;3556;53.500;10.176;2024-02-15T03:08:59;38.63;;;13.97;;
7029;SDS011;3556;53.500;10.176;2024-02-15T03:11:25;38.13;;;15.27;;
7029;SDS011;3556;53.500;10.176;2024-02-15T03:13:50;42.07;;;15.00;;
7029;SDS011;3556;53.500;10.176;2024-02-15T03:16:16;31.07;;;13.67;;
7029;SDS011;3556;53.500;10.176;2024-02-15T03:18:42;34.97;;;15.03;;
7029;SDS011;3556;53.500;10.176;2024-02-15T03:21:08;32.77;;;14.20;;
7029;SDS011;3556;53.500;10.176;2024-02-15T03:23:36;34.67;;;15.07;;
7029;SDS011;3556;53.500;10.176;2024-02-15T03:26:02;35.63;;;13.77;;
7029;SDS011;3556;53.500;10.176;2024-02-15T03:28:28;29.87;;;13.00;;
7029;SDS011;3556;53.500;10.176;2024-02-15T03:30:54;29.37;;;12.83;;
7029;SDS011;3556;53.500;10.176;2024-02-15T03:33:20;34.07;;;12.07;;
7029;SDS011;3556;53.500;10.176;2024-02-15T03:35:51;25.17;;;11.90;;
7029;SDS011;3556;53.500;10.176;2024-02-15T03:38:17;25.80;;;12.30;;
7029;SDS011;3556;53.500;10.176;2024-02-15T03:40:42;26.80;;;11.50;;
7029;SDS011;3556;53.500;10.176;2024-02-15T03:43:08;32.43;;;12.73;;
7029;SDS011;3556;53.500;10.176;2024-02-15T03:45:34;29.07;;;12.40;;
7029;SDS011;3556;53.500;10.176;2024-02-15T03:48:00;28.23;;;12.33;;
7029;SDS011;3556;53.500;10.176;2024-02-15T03:50:25;24.23;;;11.23;;
7029;SDS011;3556;53.500;10.176;2024-02-15T03:52:51;24.97;;;10.13;;
7029;SDS011;3556;53.500;10.176;2024-02-15T03:55:17;24.93;;;10.23;;
7029;SDS011;3556;53.500;10.176;2024-02-15T03:57:42;26.60;;;10.77;;
7029;SDS011;3556;53.500;10.176;2024-02-15T04:00:11;25.70;;;10.40;;
7029;SDS011;3556;53.500;10.176;2024-02-15T04:02:39;24.57;;;10.83;;
7029;SDS011;3556;53.500;10.176;2024-02-15T04:05:08;28.97;;;10.60;;
7029;SDS011;3556;53.500;10.176;2024-02-15T04:07:35;23.03;;;10.17;;
7029;SDS011;3556;53.500;10.176;2024-02-15T04:10:01;28.90;;;10.90;;
7029;SDS011;3556;53.500;10.176;2024-02-15T04:12:28;24.43;;;10.20;;
7029;SDS011;3556;53.500;10.176;2024-02-15T04:14:53;29.93;;;10.70;;
7029;SDS011;3556;53.500;10.176;2024-02-15T04:17:19;34.03;;;11.10;;
7029;SDS011;3556;53.500;10.176;2024-02-15T04:19:46;28.13;;;10.93;;
7029;SDS011;3556;53.500;10.176;2024-02-15T04:22:15;28.97;;;11.30;;
7029;SDS011;3556;53.500;10.176;2024-02-15T04:24:41;32.23;;;13.80;;
7029;SDS011;3556;53.500;10.176;2024-02-15T04:27:10;32.10;;;12.80;;
7029;SDS011;3556;53.500;10.176;2024-02-15T04:29:37;32.50;;;12.70;;
7029;SDS011;3556;53.500;10.176;2024-02-15T04:32:05;31.97;;;12.63;;
7029;SDS011;3556;53.500;10.176;2024-02-15T04:34:35;34.17;;;13.53;;
7029;SDS011;3556;53.500;10.176;2024-02-15T04:37:07;37.93;;;14.33;;
7029;SDS011;3556;53.500;10.176;2024-02-15T04:39:33;37.30;;;14.67;;
7029;SDS011;3556;53.500;10.176;2024-02-15T04:42:00;36.93;;;14.27;;
7029;SDS011;3556;53.500;10.176;2024-02-15T04:44:26;37.83;;;15.27;;
7029;SDS011;3556;53.500;10.176;2024-02-15T04:46:55;35.40;;;14.87;;
7029;SDS011;3556;53.500;10.176;2024-02-15T04:49:20;36.70;;;14.97;;
7029;SDS011;3556;53.500;10.176;2024-02-15T04:51:47;47.00;;;16.60;;
7029;SDS011;3556;53.500;10.176;2024-02-15T04:54:14;41.33;;;15.43;;
7029;SDS011;3556;53.500;10.176;2024-02-15T04:56:40;43.50;;;15.40;;
7029;SDS011;3556;53.500;10.176;2024-02-15T04:59:06;39.90;;;15.13;;
7029;SDS011;3556;53.500;10.176;2024-02-15T05:01:40;37.77;;;14.53;;
7029;SDS011;3556;53.500;10.176;2024-02-15T05:04:10;42.20;;;16.03;;
7029;SDS011;3556;53.500;10.176;2024-02-15T05:06:36;47.77;;;16.87;;
7029;SDS011;3556;53.500;10.176;2024-02-15T05:09:02;37.40;;;15.37;;
7029;SDS011;3556;53.500;10.176;2024-02-15T05:11:38;42.63;;;16.43;;
7029;SDS011;3556;53.500;10.176;2024-02-15T05:14:06;40.20;;;14.70;;
7029;SDS011;3556;53.500;10.176;2024-02-15T05:16:33;46.57;;;15.87;;
7029;SDS011;3556;53.500;10.176;2024-02-15T05:18:59;43.20;;;15.60;;
7029;SDS011;3556;53.500;10.176;2024-02-15T05:21:24;44.47;;;16.30;;
7029;SDS011;3556;53.500;10.176;2024-02-15T05:23:50;52.30;;;17.43;;
7029;SDS011;3556;53.500;10.176;2024-02-15T05:26:17;47.17;;;16.63;;
7029;SDS011;3556;53.500;10.176;2024-02-15T05:28:48;43.90;;;15.87;;
7029;SDS011;3556;53.500;10.176;2024-02-15T05:31:18;47.10;;;16.93;;
7029;SDS011;3556;53.500;10.176;2024-02-15T05:33:50;49.30;;;17.17;;
7029;SDS011;3556;53.500;10.176;2024-02-15T05:36:17;48.17;;;17.10;;
7029;SDS011;3556;53.500;10.176;2024-02-15T05:38:49;48.13;;;16.90;;
7029;SDS011;3556;53.500;10.176;2024-02-15T05:41:16;50.30;;;16.97;;
7029;SDS011;3556;53.500;10.176;2024-02-15T05:43:42;47.90;;;16.40;;
7029;SDS011;3556;53.500;10.176;2024-02-15T05:46:08;39.97;;;16.43;;
7029;SDS011;3556;53.500;10.176;2024-02-15T05:48:35;49.40;;;18.70;;
7029;SDS011;3556;53.500;10.176;2024-02-15T05:51:04;55.37;;;18.87;;
7029;SDS011;3556;53.500;10.176;2024-02-15T05:53:31;52.73;;;17.63;;
7029;SDS011;3556;53.500;10.176;2024-02-15T05:56:01;49.30;;;16.83;;
7029;SDS011;3556;53.500;10.176;2024-02-15T05:58:30;47.17;;;17.10;;
7029;SDS011;3556;53.500;10.176;2024-02-15T06:00:56;44.30;;;16.80;;
7029;SDS011;3556;53.500;10.176;2024-02-15T06:03:26;52.23;;;17.90;;
7029;SDS011;3556;53.500;10.176;2024-02-15T06:05:53;49.63;;;16.87;;
7029;SDS011;3556;53.500;10.176;2024-02-15T06:08:23;57.27;;;17.30;;
7029;SDS011;3556;53.500;10.176;2024-02-15T06:10:52;54.17;;;17.50;;
7029;SDS011;3556;53.500;10.176;2024-02-15T06:13:18;52.43;;;17.80;;
7029;SDS011;3556;53.500;10.176;2024-02-15T06:15:45;60.50;;;18.63;;
7029;SDS011;3556;53.500;10.176;2024-02-15T06:18:14;56.33;;;17.53;;
7029;SDS011;3556;53.500;10.176;2024-02-15T06:20:41;51.53;;;17.20;;
7029;SDS011;3556;53.500;10.176;2024-02-15T06:23:08;57.37;;;18.40;;
7029;SDS011;3556;53.500;10.176;2024-02-15T06:25:37;49.23;;;16.13;;
7029;SDS011;3556;53.500;10.176;2024-02-15T06:28:02;50.63;;;17.00;;
7029;SDS011;3556;53.500;10.176;2024-02-15T06:30:38;50.30;;;17.00;;
7029;SDS011;3556;53.500;10.176;2024-02-15T06:33:23;48.23;;;16.67;;
7029;SDS011;3556;53.500;10.176;2024-02-15T06:36:08;45.40;;;15.20;;
7029;SDS011;3556;53.500;10.176;2024-02-15T06:38:52;43.67;;;14.40;;
7029;SDS011;3556;53.500;10.176;2024-02-15T06:41:36;48.93;;;16.13;;
7029;SDS011;3556;53.500;10.176;2024-02-15T06:44:02;48.57;;;16.10;;
7029;SDS011;3556;53.500;10.176;2024-02-15T06:46:27;46.00;;;15.63;;
7029;SDS011;3556;53.500;10.176;2024-02-15T06:48:53;50.93;;;15.60;;
7029;SDS011;3556;53.500;10.176;2024-02-15T06:51:19;53.70;;;16.20;;
7029;SDS011;3556;53.500;10.176;2024-02-15T06:53:45;52.23;;;16.40;;
7029;SDS011;3556;53.500;10.176;2024-02-15T06:56:11;45.40;;;14.53;;
7029;SDS011;3556;53.500;10.176;2024-02-15T06:58:39;46.73;;;14.63;;
7029;SDS011;3556;53.500;10.176;2024-02-15T07:01:05;38.47;;;14.30;;
7029;SDS011;3556;53.500;10.176;2024-02-15T07:03:31;46.47;;;15.27;;
7029;SDS011;3556;53.500;10.176;2024-02-15T07:05:59;46.93;;;15.30;;
7029;SDS011;3556;53.500;10.176;2024-02-15T07:08:25;44.97;;;15.73;;
7029;SDS011;3556;53.500;10.176;2024-02-15T07:10:50;47.43;;;15.03;;
7029;SDS011;3556;53.500;10.176;2024-02-15T07:13:17;51.70;;;16.37;;
7029;SDS011;3556;53.500;10.176;2024-02-15T07:15:43;47.23;;;15.20;;
7029;SDS011;3556;53.500;10.176;2024-02-15T07:18:10;44.83;;;16.40;;
7029;SDS011;3556;53.500;10.176;2024-02-15T07:20:41;55.17;;;17.73;;
7029;SDS011;3556;53.500;10.176;2024-02-15T07:23:06;51.63;;;17.03;;
7029;SDS011;3556;53.500;10.176;2024-02-15T07:25:32;53.33;;;17.70;;
7029;SDS011;3556;53.500;10.176;2024-02-15T07:27:58;54.57;;;18.10;;
7029;SDS011;3556;53.500;10.176;2024-02-15T07:30:23;58.43;;;17.93;;
7029;SDS011;3556;53.500;10.176;2024-02-15T07:32:49;56.30;;;17.60;;
7029;SDS011;3556;53.500;10.176;2024-02-15T07:35:15;55.57;;;17.60;;
7029;SDS011;3556;53.500;10.176;2024-02-15T07:37:54;56.37;;;17.60;;
7029;SDS011;3556;53.500;10.176;2024-02-15T07:40:22;52.57;;;17.57;;
7029;SDS011;3556;53.500;10.176;2024-02-15T07:42:52;57.67;;;17.77;;
7029;SDS011;3556;53.500;10.176;2024-02-15T07:45:18;54.33;;;17.37;;
7029;SDS011;3556;53.500;10.176;2024-02-15T07:47:43;50.53;;;16.30;;
7029;SDS011;3556;53.500;10.176;2024-02-15T07:50:10;44.30;;;15.97;;
7029;SDS011;3556;53.500;10.176;2024-02-15T07:52:36;46.73;;;16.97;;
7029;SDS011;3556;53.500;10.176;2024-02-15T07:55:01;52.00;;;16.70;;
7029;SDS011;3556;53.500;10.176;2024-02-15T07:57:30;44.47;;;15.60;;
7029;SDS011;3556;53.500;10.176;2024-02-15T07:59:56;54.10;;;16.57;;
7029;SDS011;3556;53.500;10.176;2024-02-15T08:02:22;44.23;;;15.83;;
7029;SDS011;3556;53.500;10.176;2024-02-15T08:04:50;51.67;;;17.70;;
7029;SDS011;3556;53.500;10.176;2024-02-15T08:07:16;40.43;;;15.07;;
7029;SDS011;3556;53.500;10.176;2024-02-15T08:09:42;43.40;;;15.40;;
7029;SDS011;3556;53.500;10.176;2024-02-15T08:12:08;48.83;;;15.43;;
7029;SDS011;3556;53.500;10.176;2024-02-15T08:14:34;37.63;;;15.50;;
7029;SDS011;3556;53.500;10.176;2024-02-15T08:17:00;36.67;;;15.33;;
7029;SDS011;3556;53.500;10.176;2024-02-15T08:19:26;50.73;;;16.13;;
7029;SDS011;3556;53.500;10.176;2024-02-15T08:21:53;38.57;;;15.27;;
7029;SDS011;3556;53.500;10.176;2024-02-15T08:24:19;39.23;;;15.03;;
7029;SDS011;3556;53.500;10.176;2024-02-15T08:26:45;36.30;;;14.50;;
7029;SDS011;3556;53.500;10.176;2024-02-15T08:29:10;38.97;;;14.47;;
7029;SDS011;3556;53.500;10.176;2024-02-15T08:31:38;39.53;;;13.97;;
7029;SDS011;3556;53.500;10.176;2024-02-15T08:34:04;40.30;;;14.13;;
7029;SDS011;3556;53.500;10.176;2024-02-15T08:36:30;43.43;;;15.20;;
7029;SDS011;3556;53.500;10.176;2024-02-15T08:38:56;33.00;;;13.97;;
7029;SDS011;3556;53.500;10.176;2024-02-15T08:41:22;33.17;;;13.47;;
7029;SDS011;3556;53.500;10.176;2024-02-15T08:43:51;31.97;;;12.43;;
7029;SDS011;3556;53.500;10.176;2024-02-15T08:46:17;33.20;;;13.00;;
7029;SDS011;3556;53.500;10.176;2024-02-15T08:48:44;29.53;;;12.67;;
7029;SDS011;3556;53.500;10.176;2024-02-15T08:51:11;31.60;;;12.50;;
7029;SDS011;3556;53.500;10.176;2024-02-15T08:53:37;31.53;;;12.37;;
7029;SDS011;3556;53.500;10.176;2024-02-15T08:56:06;31.97;;;11.03;;
7029;SDS011;3556;53.500;10.176;2024-02-15T08:58:33;31.43;;;12.33;;
7029;SDS011;3556;53.500;10.176;2024-02-15T09:01:00;27.03;;;10.80;;
7029;SDS011;3556;53.500;10.176;2024-02-15T09:03:25;28.00;;;11.20;;
7029;SDS011;3556;53.500;10.176;2024-02-15T09:05:51;22.70;;;9.10;;
7029;SDS011;3556;53.500;10.176;2024-02-15T09:08:16;24.70;;;10.10;;
7029;SDS011;3556;53.500;10.176;2024-02-15T09:10:54;29.63;;;9.83;;
7029;SDS011;3556;53.500;10.176;2024-02-15T09:13:20;23.47;;;9.87;;
7029;SDS011;3556;53.500;10.176;2024-02-15T09:15:47;17.57;;;8.57;;
7029;SDS011;3556;53.500;10.176;2024-02-15T09:18:13;17.80;;;8.57;;
7029;SDS011;3556;53.500;10.176;2024-02-15T09:20:38;18.23;;;8.27;;
7029;SDS011;3556;53.500;10.176;2024-02-15T09:23:09;19.50;;;8.67;;
7029;SDS011;3556;53.500;10.176;2024-02-15T09:25:39;19.10;;;8.40;;
7029;SDS011;3556;53.500;10.176;2024-02-15T09:28:09;17.70;;;8.53;;
7029;SDS011;3556;53.500;10.176;2024-02-15T09:30:35;14.17;;;8.10;;
7029;SDS011;3556;53.500;10.176;2024-02-15T09:33:01;18.10;;;8.23;;
7029;SDS011;3556;53.500;10.176;2024-02-15T09:35:30;15.23;;;8.27;;
7029;SDS011;3556;53.500;10.176;2024-02-15T09:37:56;18.13;;;8.27;;
7029;SDS011;3556;53.500;10.176;2024-02-15T09:40:22;21.60;;;9.50;;
7029;SDS011;3556;53.500;10.176;2024-02-15T09:42:51;16.40;;;8.43;;
7029;SDS011;3556;53.500;10.176;2024-02-15T09:45:17;17.00;;;8.30;;
7029;SDS011;3556;53.500;10.176;2024-02-15T09:47:45;19.80;;;9.17;;
7029;SDS011;3556;53.500;10.176;2024-02-15T09:50:15;15.67;;;8.50;;
7029;SDS011;3556;53.500;10.176;2024-02-15T09:55:17;15.83;;;9.30;;
7029;SDS011;3556;53.500;10.176;2024-02-15T09:57:43;20.23;;;9.40;;
7029;SDS011;3556;53.500;10.176;2024-02-15T10:00:12;17.60;;;9.73;;
7029;SDS011;3556;53.500;10.176;2024-02-15T10:02:46;20.60;;;9.20;;
7029;SDS011;3556;53.500;10.176;2024-02-15T10:05:13;15.23;;;9.00;;
7029;SDS011;3556;53.500;10.176;2024-02-15T10:07:39;18.97;;;9.77;;
7029;SDS011;3556;53.500;10.176;2024-02-15T10:12:46;20.50;;;10.83;;
7029;SDS011;3556;53.500;10.176;2024-02-15T10:17:55;22.50;;;11.90;;
7029;SDS011;3556;53.500;10.176;2024-02-15T10:20:21;23.47;;;13.13;;
7029;SDS011;3556;53.500;10.176;2024-02-15T10:22:51;26.57;;;12.17;;
7029;SDS011;3556;53.500;10.176;2024-02-15T10:25:37;44.30;;;14.13;;
7029;SDS011;3556;53.500;10.176;2024-02-15T10:28:03;27.97;;;14.00;;
7029;SDS011;3556;53.500;10.176;2024-02-15T10:30:34;29.00;;;14.60;;
7029;SDS011;3556;53.500;10.176;2024-02-15T10:33:04;30.93;;;14.70;;
7029;SDS011;3556;53.500;10.176;2024-02-15T10:35:31;32.83;;;14.63;;
7029;SDS011;3556;53.500;10.176;2024-02-15T10:38:09;27.43;;;15.30;;
7029;SDS011;3556;53.500;10.176;2024-02-15T10:40:38;30.67;;;15.80;;
7029;SDS011;3556;53.500;10.176;2024-02-15T10:43:08;31.93;;;15.00;;
7029;SDS011;3556;53.500;10.176;2024-02-15T10:45:38;28.27;;;16.10;;
7029;SDS011;3556;53.500;10.176;2024-02-15T10:48:07;35.00;;;16.60;;
7029;SDS011;3556;53.500;10.176;2024-02-15T10:50:33;35.90;;;16.43;;
7029;SDS011;3556;53.500;10.176;2024-02-15T10:52:59;35.63;;;16.53;;
7029;SDS011;3556;53.500;10.176;2024-02-15T10:58:19;37.73;;;17.47;;
7029;SDS011;3556;53.500;10.176;2024-02-15T11:00:48;36.37;;;18.37;;
7029;SDS011;3556;53.500;10.176;2024-02-15T11:03:24;44.37;;;18.40;;
7029;SDS011;3556;53.500;10.176;2024-02-15T11:05:55;43.10;;;20.20;;
7029;SDS011;3556;53.500;10.176;2024-02-15T11:08:25;44.97;;;18.40;;
7029;SDS011;3556;53.500;10.176;2024-02-15T11:10:52;40.47;;;18.87;;
7029;SDS011;3556;53.500;10.176;2024-02-15T11:13:19;39.80;;;19.20;;
7029;SDS011;3556;53.500;10.176;2024-02-15T11:15:45;44.30;;;19.70;;
7029;SDS011;3556;53.500;10.176;2024-02-15T11:18:31;44.80;;;20.30;;
7029;SDS011;3556;53.500;10.176;2024-02-15T11:21:52;39.47;;;19.33;;
7029;SDS011;3556;53.500;10.176;2024-02-15T11:24:24;42.13;;;19.60;;
7029;SDS011;3556;53.500;10.176;2024-02-15T11:27:01;46.87;;;21.17;;
7029;SDS011;3556;53.500;10.176;2024-02-15T11:32:50;47.73;;;20.70;;
7029;SDS011;3556;53.500;10.176;2024-02-15T11:40:16;44.20;;;21.10;;
7029;SDS011;3556;53.500;10.176;2024-02-15T11:42:43;43.63;;;18.47;;
7029;SDS011;3556;53.500;10.176;2024-02-15T11:45:09;41.60;;;19.33;;
7029;SDS011;3556;53.500;10.176;2024-02-15T11:47:41;33.87;;;18.43;;
7029;SDS011;3556;53.500;10.176;2024-02-15T11:50:10;39.53;;;18.63;;
7029;SDS011;3556;53.500;10.176;2024-02-15T11:52:49;39.50;;;18.90;;
7029;SDS011;3556;53.500;10.176;2024-02-15T11:55:19;34.33;;;17.77;;
7029;SDS011;3556;53.500;10.176;2024-02-15T11:57:55;43.70;;;19.23;;
7029;SDS011;3556;53.500;10.176;2024-02-15T12:00:30;35.07;;;18.57;;
7029;SDS011;3556;53.500;10.176;2024-02-15T12:03:15;43.40;;;22.00;;
7029;SDS011;3556;53.500;10.176;2024-02-15T12:06:00;43.43;;;20.90;;
7029;SDS011;3556;53.500;10.176;2024-02-15T12:08:45;46.27;;;22.10;;
7029;SDS011;3556;53.500;10.176;2024-02-15T12:11:30;33.97;;;18.60;;
7029;SDS011;3556;53.500;10.176;2024-02-15T12:14:15;45.23;;;19.60;;
7029;SDS011;3556;53.500;10.176;2024-02-15T12:17:03;41.87;;;20.90;;
7029;SDS011;3556;53.500;10.176;2024-02-15T12:19:51;39.10;;;19.90;;
7029;SDS011;3556;53.500;10.176;2024-02-15T12:27:20;34.70;;;18.70;;
7029;SDS011;3556;53.500;10.176;2024-02-15T12:29:52;41.70;;;19.37;;
7029;SDS011;3556;53.500;10.176;2024-02-15T12:32:22;44.07;;;19.70;;
7029;SDS011;3556;53.500;10.176;2024-02-15T12:34:50;42.13;;;20.37;;
7029;SDS011;3556;53.500;10.176;2024-02-15T12:37:19;37.37;;;19.60;;
7029;SDS011;3556;53.500;10.176;2024-02-15T12:39:49;37.60;;;19.40;;
7029;SDS011;3556;53.500;10.176;2024-02-15T12:42:15;43.03;;;19.00;;
7029;SDS011;3556;53.500;10.176;2024-02-15T12:44:45;32.90;;;17.80;;
7029;SDS011;3556;53.500;10.176;2024-02-15T12:47:21;38.90;;;18.50;;
7029;SDS011;3556;53.500;10.176;2024-02-15T12:49:47;34.50;;;17.47;;
7029;SDS011;3556;53.500;10.176;2024-02-15T12:52:35;31.20;;;17.67;;
7029;SDS011;3556;53.500;10.176;2024-02-15T12:57:36;34.10;;;16.43;;
7029;SDS011;3556;53.500;10.176;2024-02-15T13:00:05;37.80;;;16.70;;
7029;SDS011;3556;53.500;10.176;2024-02-15T13:02:52;28.73;;;15.97;;
7029;SDS011;3556;53.500;10.176;2024-02-15T13:05:18;31.60;;;17.30;;
7029;SDS011;3556;53.500;10.176;2024-02-15T13:07:45;25.47;;;15.27;;
7029;SDS011;3556;53.500;10.176;2024-02-15T13:10:11;27.93;;;15.53;;
7029;SDS011;3556;53.500;10.176;2024-02-15T13:12:39;26.20;;;14.80;;
7029;SDS011;3556;53.500;10.176;2024-02-15T13:15:06;29.53;;;15.40;;
7029;SDS011;3556;53.500;10.176;2024-02-15T13:17:36;29.37;;;15.57;;
7029;SDS011;3556;53.500;10.176;2024-02-15T13:20:02;22.83;;;13.17;;
7029;SDS011;3556;53.500;10.176;2024-02-15T13:22:36;21.80;;;13.03;;
7029;SDS011;3556;53.500;10.176;2024-02-15T13:25:03;28.93;;;13.60;;
7029;SDS011;3556;53.500;10.176;2024-02-15T13:27:33;20.63;;;11.83;;
7029;SDS011;3556;53.500;10.176;2024-02-15T13:30:00;20.90;;;10.77;;
7029;SDS011;3556;53.500;10.176;2024-02-15T13:32:25;17.90;;;10.97;;
7029;SDS011;3556;53.500;10.176;2024-02-15T13:34:51;14.37;;;10.07;;
7029;SDS011;3556;53.500;10.176;2024-02-15T13:37:19;15.97;;;9.37;;
7029;SDS011;3556;53.500;10.176;2024-02-15T13:39:48;12.23;;;8.97;;
7029;SDS011;3556;53.500;10.176;2024-02-15T13:42:14;10.77;;;7.87;;
7029;SDS011;3556;53.500;10.176;2024-02-15T13:44:42;13.30;;;7.67;;
7029;SDS011;3556;53.500;10.176;2024-02-15T13:47:08;11.77;;;6.90;;
7029;SDS011;3556;53.500;10.176;2024-02-15T13:49:33;12.80;;;6.80;;
7029;SDS011;3556;53.500;10.176;2024-02-15T13:51:59;12.37;;;7.67;;
7029;SDS011;3556;53.500;10.176;2024-02-15T13:54:29;10.40;;;7.03;;
7029;SDS011;3556;53.500;10.176;2024-02-15T13:56:55;13.20;;;7.20;;
7029;SDS011;3556;53.500;10.176;2024-02-15T13:59:21;14.40;;;7.53;;
7029;SDS011;3556;53.500;10.176;2024-02-15T14:01:48;10.60;;;7.50;;
7029;SDS011;3556;53.500;10.176;2024-02-15T14:04:14;14.33;;;7.70;;
7029;SDS011;3556;53.500;10.176;2024-02-15T14:06:41;13.70;;;7.83;;
7029;SDS011;3556;53.500;10.176;2024-02-15T14:09:09;12.53;;;7.50;;
7029;SDS011;3556;53.500;10.176;2024-02-15T14:11:38;11.57;;;8.30;;
7029;SDS011;3556;53.500;10.176;2024-02-15T14:14:05;13.30;;;7.97;;
7029;SDS011;3556;53.500;10.176;2024-02-15T14:16:31;14.63;;;7.63;;
7029;SDS011;3556;53.500;10.176;2024-02-15T14:18:56;12.40;;;7.60;;
7029;SDS011;3556;53.500;10.176;2024-02-15T14:21:22;15.07;;;8.00;;
7029;SDS011;3556;53.500;10.176;2024-02-15T14:23:48;12.33;;;7.67;;
7029;SDS011;3556;53.500;10.176;2024-02-15T14:26:14;12.90;;;7.50;;
7029;SDS011;3556;53.500;10.176;2024-02-15T14:28:41;11.20;;;7.73;;
7029;SDS011;3556;53.500;10.176;2024-02-15T14:31:10;11.80;;;7.93;;
7029;SDS011;3556;53.500;10.176;2024-02-15T14:33:54;8.70;;;7.80;;
7029;SDS011;3556;53.500;10.176;2024-02-15T14:36:20;13.10;;;8.60;;
7029;SDS011;3556;53.500;10.176;2024-02-15T14:38:46;12.83;;;7.17;;
7029;SDS011;3556;53.500;10.176;2024-02-15T14:41:12;12.03;;;8.20;;
7029;SDS011;3556;53.500;10.176;2024-02-15T14:43:38;12.63;;;8.00;;
7029;SDS011;3556;53.500;10.176;2024-02-15T14:46:03;15.33;;;8.87;;
7029;SDS011;3556;53.500;10.176;2024-02-15T14:48:35;14.60;;;8.67;;
7029;SDS011;3556;53.500;10.176;2024-02-15T14:51:01;11.53;;;8.10;;
7029;SDS011;3556;53.500;10.176;2024-02-15T14:53:27;10.43;;;8.13;;
7029;SDS011;3556;53.500;10.176;2024-02-15T14:55:53;12.80;;;9.03;;
7029;SDS011;3556;53.500;10.176;2024-02-15T14:58:19;13.47;;;9.13;;
7029;SDS011;3556;53.500;10.176;2024-02-15T15:00:47;14.17;;;9.10;;
7029;SDS011;3556;53.500;10.176;2024-02-15T15:03:13;12.37;;;8.70;;
7029;SDS011;3556;53.500;10.176;2024-02-15T15:05:39;12.00;;;8.70;;
7029;SDS011;3556;53.500;10.176;2024-02-15T15:08:24;11.43;;;7.97;;
7029;SDS011;3556;53.500;10.176;2024-02-15T15:11:08;11.93;;;8.30;;